AirNav   Everest Fuels
 
 645 users online  

SC49 Bamberg County Memorial Hospital Heliport
Bamberg, South Carolina, USA

GOING TO BAMBERG?


FAA INFORMATION EFFECTIVE 18 JUNE 2020

Location

FAA Identifier: SC49
Lat/Long: 33-18-25.7900N 081-01-42.3600W
33-18.429833N 081-01.706000W
33.3071639,-81.0284333
(estimated)
Elevation: 152 ft. / 46 m (estimated)
Variation: 04W (1985)
Time zone: UTC -4 (UTC -5 during Standard Time)
Zip code: 29003

Heliport Operations

Heliport use: Private use, MEDICAL.
Activation date: 10/1980
Control tower: no
ARTCC: JACKSONVILLE CENTER
FSS: ANDERSON FLIGHT SERVICE STATION
Attendance: UNATNDD
Wind indicator: yes
Segmented circle: yes

Heliport Communications

WX ASOS at OGB (12 nm NE): 118.525 (803-536-3901)
WX AWOS-3 at BNL (18 nm W): 119.775 (803-259-4536)

Nearby radio navigation aids

VOR radial/distance  VOR name  Freq  Var
ALDr038/(22.1)ALLENDALE VOR116.7001W
VANr257/30.7VANCE VORTAC110.4006W
CAEr180/33.0COLUMBIA VORTAC114.7002W
MMTr205/38.7MC ENTIRE VORTAC113.2008W

 
NDB name  Hdg/Dist  Freq  Var  ID
AIKEN129/38.534706WAIK .- .. -.-

Heliport Services

Runway Information

Helipad H1

Dimensions: 50 x 50 ft. / 15 x 15 m
Surface: concrete
Latitude: 33-18.429833N
Longitude: 081-01.706000W
Elevation: 152.0 ft.
Traffic pattern: leftleft

Heliport Ownership and Management from official FAA records

Ownership: Publicly-owned
Owner: BAMBERG COUNTY
P.O. BOX 149
BAMBERG, SC 29003
Phone (803) 245-3110
Manager: PAUL EUBANKS
P.O. BOX 149
BAMBERG, SC 29003
Phone (803) 245-3110

Additional Remarks

104 FT POWER LINE SOUTH AND 52 FT TREE WEST OF HELIPAD.
FOR CD CTC COLUMBIA APCH AT 803-822-5242 OR 803-822-5040.

Instrument Procedures

There are no published instrument procedures at SC49.

Some nearby airports with instrument procedures:

99N - Bamberg County Airport (4 nm W)
KOGB - Orangeburg Municipal Airport (12 nm NE)
KBNL - Barnwell Regional Airport (18 nm W)
KXNO - North Air Force Auxiliary Field (18 nm N)
KAQX - Allendale County Airport (22 nm SW)
 
Loc | Ops | Rwys | IFR | FBO | Links
Com | Nav | Svcs | Stats | Notes
Area around SC49 (Bamberg County Memorial Hospital Heliport)
 
Road maps at: MapQuest Bing Google
 
Aerial photo
No photo
 
Sectional chart

 
Airport distance calculator
Flying to Bamberg County Memorial Hospital Heliport? Find the distance to fly.

From to SC49

Sunrise and sunset
Times for 13-Jul-2020
 Local
(UTC-4)
 Zulu
(UTC)
Morning civil twilight05:5809:58
Sunrise06:2610:26
Sunset20:3400:34
Evening civil twilight21:0201:02

Current date and time
Zulu (UTC)  13-Jul-2020 04:01:05
Local (UTC-4)  13-Jul-2020 00:01:05
 
METAR
KOGB 
13nm NE 
130353Z AUTO 00000KT 10SM CLR 26/24 A2984 RMK AO2 SLP102 T02560239
KBNL 
18nm W 
130355Z AUTO 00000KT 10SM SCT050 BKN060 26/22 A2983 RMK AO2
KAQX 
22nm SW 
130355Z AUTO 00000KT 10SM CLR 25/24 A2983 RMK AO2
TAF
KOGB 
13nm NE 
122053Z 1221/1318 19006KT P6SM SCT060 FM130100 VRB03KT P6SM SCT200 FM131400 22006KT P6SM SCT050 BKN120
NOTAMs
Click for the latest NOTAMs
NOTAMs are issued by the DoD/FAA and will open in a separate window not controlled by AirNav.

 

 
 

Would you like to see your business listed on this page?

 If your business provides an interesting product or service to pilots, flight crews, aircraft, or users of the Bamberg County Memorial Hospital Heliport, you should consider listing it here.  To start the listing process, click on the button below
 
Add a business
 

Other Pages about Bamberg County Memorial Hospital Heliport

Update a link
 
Copyright © AirNav, LLC. All rights reserved. Privacy Policy  Contact